sensor_id;sensor_type;location;lat;lon;timestamp;pressure;altitude;pressure_sealevel;temperature;humidity
53916;BME280;39827;49.652;18.770;2023-12-20T00:00:16;74366.09;;;-149.71;51.98
53916;BME280;39827;49.652;18.770;2023-12-20T00:02:41;74366.09;;;-149.71;52.79
53916;BME280;39827;49.652;18.770;2023-12-20T00:05:12;74348.00;;;-149.71;52.53
53916;BME280;39827;49.652;18.770;2023-12-20T00:07:37;74354.03;;;-149.71;52.43
53916;BME280;39827;49.652;18.770;2023-12-20T00:10:03;74339.97;;;-149.71;52.73
53916;BME280;39827;49.652;18.770;2023-12-20T00:12:28;74333.94;;;-149.71;52.92
53916;BME280;39827;49.652;18.770;2023-12-20T00:14:53;74343.97;;;-149.71;52.83
53916;BME280;39827;49.652;18.770;2023-12-20T00:17:19;74325.91;;;-149.71;53.10
53916;BME280;39827;49.652;18.770;2023-12-20T00:19:45;74354.03;;;-149.71;52.34
53916;BME280;39827;49.652;18.770;2023-12-20T00:22:10;74315.84;;;-149.71;52.85
53916;BME280;39827;49.652;18.770;2023-12-20T00:24:35;74329.91;;;-149.71;53.10
53916;BME280;39827;49.652;18.770;2023-12-20T00:27:01;74327.91;;;-149.71;53.17
53916;BME280;39827;49.652;18.770;2023-12-20T00:29:27;74323.88;;;-149.71;52.24
53916;BME280;39827;49.652;18.770;2023-12-20T00:31:52;74319.88;;;-149.71;52.67
53916;BME280;39827;49.652;18.770;2023-12-20T00:34:18;74319.88;;;-149.71;53.04
53916;BME280;39827;49.652;18.770;2023-12-20T00:36:43;74323.88;;;-149.71;52.78
53916;BME280;39827;49.652;18.770;2023-12-20T00:39:09;74331.94;;;-149.71;52.01
53916;BME280;39827;49.652;18.770;2023-12-20T00:41:34;74335.94;;;-149.71;52.74
53916;BME280;39827;49.652;18.770;2023-12-20T00:43:59;74346.00;;;-149.71;53.38
53916;BME280;39827;49.652;18.770;2023-12-20T00:46:25;74352.03;;;-149.71;52.96
53916;BME280;39827;49.652;18.770;2023-12-20T00:48:50;74358.06;;;-149.71;54.25
53916;BME280;39827;49.652;18.770;2023-12-20T00:51:15;74366.09;;;-149.71;54.06
53916;BME280;39827;49.652;18.770;2023-12-20T00:53:41;74372.13;;;-149.71;53.95
53916;BME280;39827;49.652;18.770;2023-12-20T00:56:06;74364.06;;;-149.71;53.76
53916;BME280;39827;49.652;18.770;2023-12-20T00:58:31;74350.00;;;-149.71;53.67
53916;BME280;39827;49.652;18.770;2023-12-20T01:00:57;74352.03;;;-149.71;54.06
53916;BME280;39827;49.652;18.770;2023-12-20T01:03:23;74335.94;;;-149.71;54.02
53916;BME280;39827;49.652;18.770;2023-12-20T01:05:48;74339.97;;;-149.71;53.20
53916;BME280;39827;49.652;18.770;2023-12-20T01:08:14;74327.91;;;-149.71;53.66
53916;BME280;39827;49.652;18.770;2023-12-20T01:10:39;74323.88;;;-149.71;53.79
53916;BME280;39827;49.652;18.770;2023-12-20T01:13:05;74307.81;;;-149.71;53.53
53916;BME280;39827;49.652;18.770;2023-12-20T01:15:31;74313.84;;;-149.71;53.42
53916;BME280;39827;49.652;18.770;2023-12-20T01:17:56;74309.81;;;-149.71;53.97
53916;BME280;39827;49.652;18.770;2023-12-20T01:20:23;74299.78;;;-149.71;53.82
53916;BME280;39827;49.652;18.770;2023-12-20T01:22:49;74307.81;;;-149.71;53.72
53916;BME280;39827;49.652;18.770;2023-12-20T01:25:14;74291.75;;;-149.71;53.80
53916;BME280;39827;49.652;18.770;2023-12-20T01:27:39;74293.75;;;-149.71;52.57
53916;BME280;39827;49.652;18.770;2023-12-20T01:30:05;74277.69;;;-149.71;52.62
53916;BME280;39827;49.652;18.770;2023-12-20T01:32:31;74287.72;;;-149.71;52.44
53916;BME280;39827;49.652;18.770;2023-12-20T01:34:56;74275.66;;;-149.71;52.32
53916;BME280;39827;49.652;18.770;2023-12-20T01:37:21;74299.78;;;-149.71;53.01
53916;BME280;39827;49.652;18.770;2023-12-20T01:39:49;74295.75;;;-149.71;52.99
53916;BME280;39827;49.652;18.770;2023-12-20T01:42:14;74299.78;;;-149.71;52.74
53916;BME280;39827;49.652;18.770;2023-12-20T01:44:39;74299.78;;;-149.71;52.69
53916;BME280;39827;49.652;18.770;2023-12-20T01:47:05;74287.72;;;-149.71;52.51
53916;BME280;39827;49.652;18.770;2023-12-20T01:49:30;74293.75;;;-149.71;52.07
53916;BME280;39827;49.652;18.770;2023-12-20T01:51:56;74283.72;;;-149.71;52.94
53916;BME280;39827;49.652;18.770;2023-12-20T01:54:22;74291.75;;;-149.71;52.59
53916;BME280;39827;49.652;18.770;2023-12-20T01:56:48;74281.69;;;-149.71;52.59
53916;BME280;39827;49.652;18.770;2023-12-20T01:59:14;74279.69;;;-149.71;52.66
53916;BME280;39827;49.652;18.770;2023-12-20T02:01:40;74303.81;;;-149.71;52.93
53916;BME280;39827;49.652;18.770;2023-12-20T02:04:05;74297.78;;;-149.71;52.78
53916;BME280;39827;49.652;18.770;2023-12-20T02:06:33;74303.81;;;-149.71;53.25
53916;BME280;39827;49.652;18.770;2023-12-20T02:08:59;74289.75;;;-149.71;52.66
53916;BME280;39827;49.652;18.770;2023-12-20T02:11:25;74287.72;;;-149.71;53.13
53916;BME280;39827;49.652;18.770;2023-12-20T02:13:51;74299.78;;;-149.71;53.24
53916;BME280;39827;49.652;18.770;2023-12-20T02:16:16;74299.78;;;-149.71;53.08
53916;BME280;39827;49.652;18.770;2023-12-20T02:18:42;74303.81;;;-149.71;53.31
53916;BME280;39827;49.652;18.770;2023-12-20T02:21:09;74309.81;;;-149.71;53.04
53916;BME280;39827;49.652;18.770;2023-12-20T02:23:35;74313.84;;;-149.71;53.67
53916;BME280;39827;49.652;18.770;2023-12-20T02:26:00;74297.78;;;-149.71;53.33
53916;BME280;39827;49.652;18.770;2023-12-20T02:28:26;74299.78;;;-149.71;54.05
53916;BME280;39827;49.652;18.770;2023-12-20T02:30:52;74277.69;;;-149.71;53.51
53916;BME280;39827;49.652;18.770;2023-12-20T02:33:17;74283.72;;;-149.71;53.63
53916;BME280;39827;49.652;18.770;2023-12-20T02:35:42;74293.75;;;-149.71;53.69
53916;BME280;39827;49.652;18.770;2023-12-20T02:38:08;74279.69;;;-149.71;53.24
53916;BME280;39827;49.652;18.770;2023-12-20T02:40:33;74293.75;;;-149.71;53.24
53916;BME280;39827;49.652;18.770;2023-12-20T02:42:59;74287.72;;;-149.71;53.46
53916;BME280;39827;49.652;18.770;2023-12-20T02:45:24;74295.75;;;-149.71;53.42
53916;BME280;39827;49.652;18.770;2023-12-20T02:47:50;74287.72;;;-149.71;53.08
53916;BME280;39827;49.652;18.770;2023-12-20T02:50:15;74271.66;;;-149.71;52.64
53916;BME280;39827;49.652;18.770;2023-12-20T02:52:44;74273.66;;;-149.71;52.60
53916;BME280;39827;49.652;18.770;2023-12-20T02:55:09;74261.59;;;-149.71;51.62
53916;BME280;39827;49.652;18.770;2023-12-20T02:57:35;74249.56;;;-149.71;51.45
53916;BME280;39827;49.652;18.770;2023-12-20T03:00:01;74263.63;;;-149.71;51.88
53916;BME280;39827;49.652;18.770;2023-12-20T03:02:26;74265.63;;;-149.71;51.21
53916;BME280;39827;49.652;18.770;2023-12-20T03:04:52;74267.63;;;-149.71;50.90
53916;BME280;39827;49.652;18.770;2023-12-20T03:07:17;74249.56;;;-149.71;50.37
53916;BME280;39827;49.652;18.770;2023-12-20T03:09:43;74243.53;;;-149.71;50.63
53916;BME280;39827;49.652;18.770;2023-12-20T03:12:08;74243.53;;;-149.71;50.16
53916;BME280;39827;49.652;18.770;2023-12-20T03:14:33;74215.41;;;-149.71;49.40
53916;BME280;39827;49.652;18.770;2023-12-20T03:16:59;74211.38;;;-149.71;49.44
53916;BME280;39827;49.652;18.770;2023-12-20T03:19:24;74199.31;;;-149.71;49.76
53916;BME280;39827;49.652;18.770;2023-12-20T03:21:50;74193.31;;;-149.71;49.75
53916;BME280;39827;49.652;18.770;2023-12-20T03:24:15;74193.31;;;-149.71;50.00
53916;BME280;39827;49.652;18.770;2023-12-20T03:26:40;74195.31;;;-149.71;50.16
53916;BME280;39827;49.652;18.770;2023-12-20T03:29:06;74189.28;;;-149.71;50.59
53916;BME280;39827;49.652;18.770;2023-12-20T03:31:31;74177.22;;;-149.71;49.91
53916;BME280;39827;49.652;18.770;2023-12-20T03:33:57;74163.16;;;-149.71;49.70
53916;BME280;39827;49.652;18.770;2023-12-20T03:36:22;74163.16;;;-149.71;49.54
53916;BME280;39827;49.652;18.770;2023-12-20T03:38:47;74147.09;;;-149.71;48.96
53916;BME280;39827;49.652;18.770;2023-12-20T03:41:13;74133.03;;;-149.71;49.08
53916;BME280;39827;49.652;18.770;2023-12-20T03:43:38;74137.03;;;-149.71;48.72
53916;BME280;39827;49.652;18.770;2023-12-20T03:46:04;74147.09;;;-149.71;49.45
53916;BME280;39827;49.652;18.770;2023-12-20T03:48:32;74139.06;;;-149.71;48.58
53916;BME280;39827;49.652;18.770;2023-12-20T03:50:58;74165.16;;;-149.71;49.68
53916;BME280;39827;49.652;18.770;2023-12-20T03:53:23;74157.13;;;-149.71;49.49
53916;BME280;39827;49.652;18.770;2023-12-20T03:55:49;74165.16;;;-149.71;49.29
53916;BME280;39827;49.652;18.770;2023-12-20T03:58:14;74153.13;;;-149.71;49.00
53916;BME280;39827;49.652;18.770;2023-12-20T04:00:39;74141.06;;;-149.71;49.34
53916;BME280;39827;49.652;18.770;2023-12-20T04:03:05;74139.06;;;-149.71;49.76
53916;BME280;39827;49.652;18.770;2023-12-20T04:05:30;74141.06;;;-149.71;49.43
53916;BME280;39827;49.652;18.770;2023-12-20T04:07:55;74147.09;;;-149.71;49.77
53916;BME280;39827;49.652;18.770;2023-12-20T04:10:21;74149.09;;;-149.71;49.91
53916;BME280;39827;49.652;18.770;2023-12-20T04:12:46;74153.13;;;-149.71;50.87
53916;BME280;39827;49.652;18.770;2023-12-20T04:15:12;74167.19;;;-149.71;53.03
53916;BME280;39827;49.652;18.770;2023-12-20T04:17:37;74177.22;;;-149.71;54.41
53916;BME280;39827;49.652;18.770;2023-12-20T04:20:03;74175.22;;;-149.71;54.37
53916;BME280;39827;49.652;18.770;2023-12-20T04:22:28;74185.25;;;-149.71;55.77
53916;BME280;39827;49.652;18.770;2023-12-20T04:24:54;74205.34;;;-149.71;57.54
53916;BME280;39827;49.652;18.770;2023-12-20T04:27:19;74203.34;;;-149.71;59.69
53916;BME280;39827;49.652;18.770;2023-12-20T04:29:44;74245.53;;;-149.71;63.33
53916;BME280;39827;49.652;18.770;2023-12-20T04:32:10;74239.50;;;-149.71;64.90
53916;BME280;39827;49.652;18.770;2023-12-20T04:34:36;74245.53;;;-149.71;67.38
53916;BME280;39827;49.652;18.770;2023-12-20T04:37:01;74245.53;;;-149.71;69.04
53916;BME280;39827;49.652;18.770;2023-12-20T04:39:27;74275.66;;;-149.71;69.68
53916;BME280;39827;49.652;18.770;2023-12-20T04:41:52;74253.56;;;-149.71;71.82
53916;BME280;39827;49.652;18.770;2023-12-20T04:44:18;74259.59;;;-149.71;69.22
53916;BME280;39827;49.652;18.770;2023-12-20T04:46:43;74259.59;;;-149.71;70.89
53916;BME280;39827;49.652;18.770;2023-12-20T04:49:09;74247.53;;;-149.71;70.93
53916;BME280;39827;49.652;18.770;2023-12-20T04:51:35;74243.53;;;-149.71;70.48
53916;BME280;39827;49.652;18.770;2023-12-20T04:54:03;74235.50;;;-149.71;73.33
53916;BME280;39827;49.652;18.770;2023-12-20T04:56:29;74243.53;;;-149.71;75.84
53916;BME280;39827;49.652;18.770;2023-12-20T04:58:54;74243.53;;;-149.71;74.14
53916;BME280;39827;49.652;18.770;2023-12-20T05:01:19;74227.44;;;-149.71;74.11
53916;BME280;39827;49.652;18.770;2023-12-20T05:03:45;74243.53;;;-149.71;74.15
53916;BME280;39827;49.652;18.770;2023-12-20T05:06:11;74239.50;;;-149.71;75.71
53916;BME280;39827;49.652;18.770;2023-12-20T05:08:36;74255.59;;;-149.71;76.08
53916;BME280;39827;49.652;18.770;2023-12-20T05:11:02;74237.50;;;-149.71;72.58
53916;BME280;39827;49.652;18.770;2023-12-20T05:13:28;74251.56;;;-149.71;74.87
53916;BME280;39827;49.652;18.770;2023-12-20T05:15:53;74267.63;;;-149.71;76.94
53916;BME280;39827;49.652;18.770;2023-12-20T05:18:20;74253.56;;;-149.71;77.48
53916;BME280;39827;49.652;18.770;2023-12-20T05:20:46;74223.44;;;-149.71;73.46
53916;BME280;39827;49.652;18.770;2023-12-20T05:23:11;74225.44;;;-149.71;73.19
53916;BME280;39827;49.652;18.770;2023-12-20T05:25:38;74245.53;;;-149.71;74.65
53916;BME280;39827;49.652;18.770;2023-12-20T05:28:04;74253.56;;;-149.71;74.54
53916;BME280;39827;49.652;18.770;2023-12-20T05:30:30;74231.47;;;-149.71;75.66
53916;BME280;39827;49.652;18.770;2023-12-20T05:32:55;74239.50;;;-149.71;74.95
53916;BME280;39827;49.652;18.770;2023-12-20T05:35:20;74245.53;;;-149.71;74.67
53916;BME280;39827;49.652;18.770;2023-12-20T05:37:47;74243.53;;;-149.71;74.09
53916;BME280;39827;49.652;18.770;2023-12-20T05:40:12;74247.53;;;-149.71;74.40
53916;BME280;39827;49.652;18.770;2023-12-20T05:42:38;74209.38;;;-149.71;73.63
53916;BME280;39827;49.652;18.770;2023-12-20T05:45:04;74239.50;;;-149.71;76.31
53916;BME280;39827;49.652;18.770;2023-12-20T05:47:29;74247.53;;;-149.71;75.88
53916;BME280;39827;49.652;18.770;2023-12-20T05:49:55;74235.50;;;-149.71;75.78
53916;BME280;39827;49.652;18.770;2023-12-20T05:52:20;74245.53;;;-149.71;75.62
53916;BME280;39827;49.652;18.770;2023-12-20T05:54:46;74219.41;;;-149.71;73.82
53916;BME280;39827;49.652;18.770;2023-12-20T05:57:11;74225.44;;;-149.71;76.29
53916;BME280;39827;49.652;18.770;2023-12-20T05:59:36;74237.50;;;-149.71;77.27
53916;BME280;39827;49.652;18.770;2023-12-20T06:02:03;74235.50;;;-149.71;77.09
53916;BME280;39827;49.652;18.770;2023-12-20T06:04:29;74235.50;;;-149.71;77.95
53916;BME280;39827;49.652;18.770;2023-12-20T06:06:54;74245.53;;;-149.71;78.43
53916;BME280;39827;49.652;18.770;2023-12-20T06:09:20;74237.50;;;-149.71;78.28
53916;BME280;39827;49.652;18.770;2023-12-20T06:11:45;74233.47;;;-149.71;78.86
53916;BME280;39827;49.652;18.770;2023-12-20T06:14:11;74235.50;;;-149.71;78.77
53916;BME280;39827;49.652;18.770;2023-12-20T06:16:36;74233.47;;;-149.71;78.52
53916;BME280;39827;49.652;18.770;2023-12-20T06:19:01;74239.50;;;-149.71;78.95
53916;BME280;39827;49.652;18.770;2023-12-20T06:21:27;74251.56;;;-149.71;78.26
53916;BME280;39827;49.652;18.770;2023-12-20T06:23:52;74239.50;;;-149.71;77.97
53916;BME280;39827;49.652;18.770;2023-12-20T06:26:18;74233.47;;;-149.71;76.00
53916;BME280;39827;49.652;18.770;2023-12-20T06:28:43;74227.44;;;-149.71;76.77
53916;BME280;39827;49.652;18.770;2023-12-20T06:31:09;74251.56;;;-149.71;79.38
53916;BME280;39827;49.652;18.770;2023-12-20T06:33:34;74265.63;;;-149.71;81.08
53916;BME280;39827;49.652;18.770;2023-12-20T06:36:00;74271.66;;;-149.71;80.63
53916;BME280;39827;49.652;18.770;2023-12-20T06:38:26;74255.59;;;-149.71;81.35
53916;BME280;39827;49.652;18.770;2023-12-20T06:40:51;74237.50;;;-149.71;81.57
53916;BME280;39827;49.652;18.770;2023-12-20T06:43:16;74229.47;;;-149.71;81.35
53916;BME280;39827;49.652;18.770;2023-12-20T06:45:42;74239.50;;;-149.71;82.85
53916;BME280;39827;49.652;18.770;2023-12-20T06:48:07;74267.63;;;-149.71;83.60
53916;BME280;39827;49.652;18.770;2023-12-20T06:50:33;74243.53;;;-149.71;83.26
53916;BME280;39827;49.652;18.770;2023-12-20T06:52:58;74247.53;;;-149.71;82.90
53916;BME280;39827;49.652;18.770;2023-12-20T06:55:23;74279.69;;;-149.71;83.22
53916;BME280;39827;49.652;18.770;2023-12-20T06:57:49;74253.56;;;-149.71;82.84
53916;BME280;39827;49.652;18.770;2023-12-20T07:00:14;74267.63;;;-149.71;82.64
53916;BME280;39827;49.652;18.770;2023-12-20T07:02:40;74267.63;;;-149.71;82.01
53916;BME280;39827;49.652;18.770;2023-12-20T07:05:06;74259.59;;;-149.71;80.58
53916;BME280;39827;49.652;18.770;2023-12-20T07:07:31;74251.56;;;-149.71;80.25
53916;BME280;39827;49.652;18.770;2023-12-20T07:09:57;74249.56;;;-149.71;80.93
53916;BME280;39827;49.652;18.770;2023-12-20T07:12:22;74271.66;;;-149.71;82.82
53916;BME280;39827;49.652;18.770;2023-12-20T07:14:48;74271.66;;;-149.71;83.52
53916;BME280;39827;49.652;18.770;2023-12-20T07:17:13;74299.78;;;-149.71;85.02
53916;BME280;39827;49.652;18.770;2023-12-20T07:19:41;74299.78;;;-149.71;86.01
53916;BME280;39827;49.652;18.770;2023-12-20T07:22:07;74309.81;;;-149.71;86.33
53916;BME280;39827;49.652;18.770;2023-12-20T07:24:33;74313.84;;;-149.71;86.62
53916;BME280;39827;49.652;18.770;2023-12-20T07:27:02;74323.88;;;-149.71;87.28
53916;BME280;39827;49.652;18.770;2023-12-20T07:29:27;74331.94;;;-149.71;87.89
53916;BME280;39827;49.652;18.770;2023-12-20T07:31:53;74325.91;;;-149.71;88.29
53916;BME280;39827;49.652;18.770;2023-12-20T07:34:20;74335.94;;;-149.71;88.91
53916;BME280;39827;49.652;18.770;2023-12-20T07:36:45;74358.06;;;-149.71;89.76
53916;BME280;39827;49.652;18.770;2023-12-20T07:39:10;74350.00;;;-149.71;89.91
53916;BME280;39827;49.652;18.770;2023-12-20T07:41:36;74335.94;;;-149.71;89.37
53916;BME280;39827;49.652;18.770;2023-12-20T07:44:01;74337.97;;;-149.71;88.95
53916;BME280;39827;49.652;18.770;2023-12-20T07:46:27;74350.00;;;-149.71;88.53
53916;BME280;39827;49.652;18.770;2023-12-20T07:48:52;74358.06;;;-149.71;88.29
53916;BME280;39827;49.652;18.770;2023-12-20T07:51:17;74333.94;;;-149.71;87.23
53916;BME280;39827;49.652;18.770;2023-12-20T07:53:43;74335.94;;;-149.71;87.06
53916;BME280;39827;49.652;18.770;2023-12-20T07:56:19;74321.88;;;-149.71;88.44
53916;BME280;39827;49.652;18.770;2023-12-20T07:58:45;74309.81;;;-149.71;88.72
53916;BME280;39827;49.652;18.770;2023-12-20T08:01:11;74311.84;;;-149.71;88.82
53916;BME280;39827;49.652;18.770;2023-12-20T08:03:38;74305.81;;;-149.71;88.50
53916;BME280;39827;49.652;18.770;2023-12-20T08:06:04;74297.78;;;-149.71;89.06
53916;BME280;39827;49.652;18.770;2023-12-20T08:08:29;74281.69;;;-149.71;89.31
53916;BME280;39827;49.652;18.770;2023-12-20T08:10:55;74283.72;;;-149.71;89.46
53916;BME280;39827;49.652;18.770;2023-12-20T08:13:22;74259.59;;;-149.71;88.73
53916;BME280;39827;49.652;18.770;2023-12-20T08:15:54;74251.56;;;-149.71;88.49
53916;BME280;39827;49.652;18.770;2023-12-20T08:18:21;74241.53;;;-149.71;88.64
53916;BME280;39827;49.652;18.770;2023-12-20T08:20:46;74255.59;;;-149.71;89.00
53916;BME280;39827;49.652;18.770;2023-12-20T08:23:13;74251.56;;;-149.71;88.58
53916;BME280;39827;49.652;18.770;2023-12-20T08:25:38;74223.44;;;-149.71;88.29
53916;BME280;39827;49.652;18.770;2023-12-20T08:28:04;74229.47;;;-149.71;88.86
53916;BME280;39827;49.652;18.770;2023-12-20T08:30:30;74243.53;;;-149.71;87.18
53916;BME280;39827;49.652;18.770;2023-12-20T08:32:56;74233.47;;;-149.71;87.25
53916;BME280;39827;49.652;18.770;2023-12-20T08:35:21;74227.44;;;-149.71;87.31
53916;BME280;39827;49.652;18.770;2023-12-20T08:37:47;74231.47;;;-149.71;87.49
53916;BME280;39827;49.652;18.770;2023-12-20T08:40:13;74227.44;;;-149.71;87.24
53916;BME280;39827;49.652;18.770;2023-12-20T08:42:38;74227.44;;;-149.71;87.54
53916;BME280;39827;49.652;18.770;2023-12-20T08:45:04;74229.47;;;-149.71;87.83
53916;BME280;39827;49.652;18.770;2023-12-20T08:47:30;74237.50;;;-149.71;86.95
53916;BME280;39827;49.652;18.770;2023-12-20T08:49:55;74239.50;;;-149.71;86.99
53916;BME280;39827;49.652;18.770;2023-12-20T08:52:23;74243.53;;;-149.71;86.53
53916;BME280;39827;49.652;18.770;2023-12-20T08:54:49;74229.47;;;-149.71;86.89
53916;BME280;39827;49.652;18.770;2023-12-20T08:57:19;74239.50;;;-149.71;87.42
53916;BME280;39827;49.652;18.770;2023-12-20T08:59:45;74233.47;;;-149.71;87.77
53916;BME280;39827;49.652;18.770;2023-12-20T09:02:11;74229.47;;;-149.71;87.70
53916;BME280;39827;49.652;18.770;2023-12-20T09:04:36;74223.44;;;-149.71;87.64
53916;BME280;39827;49.652;18.770;2023-12-20T09:07:01;74243.53;;;-149.71;87.87
53916;BME280;39827;49.652;18.770;2023-12-20T09:09:27;74253.56;;;-149.71;88.02
53916;BME280;39827;49.652;18.770;2023-12-20T09:11:52;74243.53;;;-149.71;88.17
53916;BME280;39827;49.652;18.770;2023-12-20T09:14:18;74251.56;;;-149.71;87.69
53916;BME280;39827;49.652;18.770;2023-12-20T09:16:43;74245.53;;;-149.71;87.31
53916;BME280;39827;49.652;18.770;2023-12-20T09:19:08;74265.63;;;-149.71;87.93
53916;BME280;39827;49.652;18.770;2023-12-20T09:21:34;74257.59;;;-149.71;87.20
53916;BME280;39827;49.652;18.770;2023-12-20T09:23:59;74259.59;;;-149.71;86.40
53916;BME280;39827;49.652;18.770;2023-12-20T09:26:25;74259.59;;;-149.71;86.49
53916;BME280;39827;49.652;18.770;2023-12-20T09:28:50;74253.56;;;-149.71;86.39
53916;BME280;39827;49.652;18.770;2023-12-20T09:31:15;74245.53;;;-149.71;86.73
53916;BME280;39827;49.652;18.770;2023-12-20T09:33:41;74243.53;;;-149.71;87.11
53916;BME280;39827;49.652;18.770;2023-12-20T09:36:07;74243.53;;;-149.71;87.60
53916;BME280;39827;49.652;18.770;2023-12-20T09:38:32;74231.47;;;-149.71;87.86
53916;BME280;39827;49.652;18.770;2023-12-20T09:40:58;74225.44;;;-149.71;87.33
53916;BME280;39827;49.652;18.770;2023-12-20T09:43:24;74233.47;;;-149.71;86.37
53916;BME280;39827;49.652;18.770;2023-12-20T09:45:53;74229.47;;;-149.71;86.60
53916;BME280;39827;49.652;18.770;2023-12-20T09:48:19;74217.41;;;-149.71;86.84
53916;BME280;39827;49.652;18.770;2023-12-20T09:50:45;74237.50;;;-149.71;87.51
53916;BME280;39827;49.652;18.770;2023-12-20T09:53:15;74233.47;;;-149.71;87.38
53916;BME280;39827;49.652;18.770;2023-12-20T09:55:41;74231.47;;;-149.71;87.33
53916;BME280;39827;49.652;18.770;2023-12-20T09:58:07;74231.47;;;-149.71;87.41
53916;BME280;39827;49.652;18.770;2023-12-20T10:00:34;74235.50;;;-149.71;87.64
53916;BME280;39827;49.652;18.770;2023-12-20T10:03:00;74253.56;;;-149.71;87.95
53916;BME280;39827;49.652;18.770;2023-12-20T10:05:29;74257.59;;;-149.71;88.15
53916;BME280;39827;49.652;18.770;2023-12-20T10:07:54;74255.59;;;-149.71;87.87
53916;BME280;39827;49.652;18.770;2023-12-20T10:10:20;74257.59;;;-149.71;87.60
53916;BME280;39827;49.652;18.770;2023-12-20T10:13:04;74253.56;;;-149.71;88.30
53916;BME280;39827;49.652;18.770;2023-12-20T10:15:34;74267.63;;;-149.71;88.10
53916;BME280;39827;49.652;18.770;2023-12-20T10:18:01;74265.63;;;-149.71;88.44
53916;BME280;39827;49.652;18.770;2023-12-20T10:20:28;74271.66;;;-149.71;88.71
53916;BME280;39827;49.652;18.770;2023-12-20T10:22:57;74269.66;;;-149.71;88.88
53916;BME280;39827;49.652;18.770;2023-12-20T10:25:23;74281.69;;;-149.71;89.46
53916;BME280;39827;49.652;18.770;2023-12-20T10:27:49;74275.66;;;-149.71;89.17
53916;BME280;39827;49.652;18.770;2023-12-20T10:30:15;74283.72;;;-149.71;89.22
53916;BME280;39827;49.652;18.770;2023-12-20T10:32:40;74287.72;;;-149.71;89.07
53916;BME280;39827;49.652;18.770;2023-12-20T10:35:06;74279.69;;;-149.71;88.91
53916;BME280;39827;49.652;18.770;2023-12-20T10:37:36;74279.69;;;-149.71;88.70
53916;BME280;39827;49.652;18.770;2023-12-20T10:40:03;74279.69;;;-149.71;89.13
53916;BME280;39827;49.652;18.770;2023-12-20T10:42:29;74271.66;;;-149.71;88.72
53916;BME280;39827;49.652;18.770;2023-12-20T10:44:56;74267.63;;;-149.71;88.23
53916;BME280;39827;49.652;18.770;2023-12-20T10:47:22;74267.63;;;-149.71;88.54
53916;BME280;39827;49.652;18.770;2023-12-20T10:49:52;74275.66;;;-149.71;88.33
53916;BME280;39827;49.652;18.770;2023-12-20T10:52:17;74277.69;;;-149.71;88.72
53916;BME280;39827;49.652;18.770;2023-12-20T10:54:44;74263.63;;;-149.71;88.11
53916;BME280;39827;49.652;18.770;2023-12-20T10:57:10;74273.66;;;-149.71;88.18
53916;BME280;39827;49.652;18.770;2023-12-20T10:59:37;74283.72;;;-149.71;88.00
53916;BME280;39827;49.652;18.770;2023-12-20T11:02:04;74283.72;;;-149.71;87.96
53916;BME280;39827;49.652;18.770;2023-12-20T11:04:44;74275.66;;;-149.71;87.67
53916;BME280;39827;49.652;18.770;2023-12-20T11:10:23;74291.75;;;-149.71;87.75
53916;BME280;39827;49.652;18.770;2023-12-20T11:13:00;74293.75;;;-149.71;88.42
53916;BME280;39827;49.652;18.770;2023-12-20T11:15:28;74309.81;;;-149.71;88.16
53916;BME280;39827;49.652;18.770;2023-12-20T11:17:57;74305.81;;;-149.71;88.80
53916;BME280;39827;49.652;18.770;2023-12-20T11:20:24;74301.78;;;-149.71;88.66
53916;BME280;39827;49.652;18.770;2023-12-20T11:23:00;74303.81;;;-149.71;88.65
53916;BME280;39827;49.652;18.770;2023-12-20T11:25:26;74291.75;;;-149.71;88.37
53916;BME280;39827;49.652;18.770;2023-12-20T11:28:24;74293.75;;;-149.71;88.46
53916;BME280;39827;49.652;18.770;2023-12-20T11:33:21;74289.75;;;-149.71;88.50
53916;BME280;39827;49.652;18.770;2023-12-20T11:35:47;74301.78;;;-149.71;88.30
53916;BME280;39827;49.652;18.770;2023-12-20T11:38:13;74281.69;;;-149.71;88.25
53916;BME280;39827;49.652;18.770;2023-12-20T11:40:41;74279.69;;;-149.71;88.12
53916;BME280;39827;49.652;18.770;2023-12-20T11:43:06;74273.66;;;-149.71;87.73
53916;BME280;39827;49.652;18.770;2023-12-20T11:45:33;74275.66;;;-149.71;88.02
53916;BME280;39827;49.652;18.770;2023-12-20T11:48:01;74255.59;;;-149.71;88.02
53916;BME280;39827;49.652;18.770;2023-12-20T11:50:28;74261.59;;;-149.71;88.09
53916;BME280;39827;49.652;18.770;2023-12-20T11:52:55;74247.53;;;-149.71;88.14
53916;BME280;39827;49.652;18.770;2023-12-20T11:55:21;74259.59;;;-149.71;88.44
53916;BME280;39827;49.652;18.770;2023-12-20T11:57:47;74245.53;;;-149.71;88.35
53916;BME280;39827;49.652;18.770;2023-12-20T12:00:13;74247.53;;;-149.71;87.76
53916;BME280;39827;49.652;18.770;2023-12-20T12:02:39;74227.44;;;-149.71;87.99
53916;BME280;39827;49.652;18.770;2023-12-20T12:05:05;74227.44;;;-149.71;88.49
53916;BME280;39827;49.652;18.770;2023-12-20T12:07:31;74215.41;;;-149.71;88.67
53916;BME280;39827;49.652;18.770;2023-12-20T12:09:57;74209.38;;;-149.71;88.69
53916;BME280;39827;49.652;18.770;2023-12-20T12:12:23;74209.38;;;-149.71;89.20
53916;BME280;39827;49.652;18.770;2023-12-20T12:14:50;74225.44;;;-149.71;86.12
53916;BME280;39827;49.652;18.770;2023-12-20T12:17:16;74211.38;;;-149.71;86.36
53916;BME280;39827;49.652;18.770;2023-12-20T12:19:42;74215.41;;;-149.71;87.37
53916;BME280;39827;49.652;18.770;2023-12-20T12:22:11;74205.34;;;-149.71;88.14
53916;BME280;39827;49.652;18.770;2023-12-20T12:24:46;74215.41;;;-149.71;88.77
53916;BME280;39827;49.652;18.770;2023-12-20T12:27:13;74219.41;;;-149.71;88.93
53916;BME280;39827;49.652;18.770;2023-12-20T12:29:38;74229.47;;;-149.71;88.33